sensor_id;sensor_type;location;lat;lon;timestamp;P1;durP1;ratioP1;P2;durP2;ratioP2
9106;SDS011;4589;48.690;8.952;2022-09-09T00:02:01;3.60;;;2.53;;
9106;SDS011;4589;48.690;8.952;2022-09-09T00:04:43;7.30;;;2.13;;
9106;SDS011;4589;48.690;8.952;2022-09-09T00:07:23;2.30;;;2.10;;
9106;SDS011;4589;48.690;8.952;2022-09-09T00:09:55;2.50;;;1.90;;
9106;SDS011;4589;48.690;8.952;2022-09-09T00:12:33;2.80;;;1.60;;
9106;SDS011;4589;48.690;8.952;2022-09-09T00:15:02;4.83;;;2.00;;
9106;SDS011;4589;48.690;8.952;2022-09-09T00:20:32;6.50;;;3.13;;
9106;SDS011;4589;48.690;8.952;2022-09-09T00:23:13;7.13;;;2.30;;
9106;SDS011;4589;48.690;8.952;2022-09-09T00:25:42;5.20;;;2.50;;
9106;SDS011;4589;48.690;8.952;2022-09-09T00:28:13;3.27;;;2.20;;
9106;SDS011;4589;48.690;8.952;2022-09-09T00:30:48;3.90;;;1.93;;
9106;SDS011;4589;48.690;8.952;2022-09-09T00:33:14;2.70;;;1.80;;
9106;SDS011;4589;48.690;8.952;2022-09-09T00:35:49;2.77;;;1.90;;
9106;SDS011;4589;48.690;8.952;2022-09-09T00:38:18;2.03;;;1.60;;
9106;SDS011;4589;48.690;8.952;2022-09-09T00:43:30;3.00;;;1.90;;
9106;SDS011;4589;48.690;8.952;2022-09-09T00:49:09;1.70;;;1.60;;
9106;SDS011;4589;48.690;8.952;2022-09-09T00:51:49;3.47;;;1.80;;
9106;SDS011;4589;48.690;8.952;2022-09-09T00:54:26;2.27;;;1.53;;
9106;SDS011;4589;48.690;8.952;2022-09-09T00:59:32;2.70;;;1.80;;
9106;SDS011;4589;48.690;8.952;2022-09-09T01:02:11;2.53;;;1.70;;
9106;SDS011;4589;48.690;8.952;2022-09-09T01:04:43;6.13;;;2.03;;
9106;SDS011;4589;48.690;8.952;2022-09-09T01:07:18;2.60;;;2.13;;
9106;SDS011;4589;48.690;8.952;2022-09-09T01:10:07;2.00;;;1.80;;
9106;SDS011;4589;48.690;8.952;2022-09-09T01:15:12;4.40;;;1.70;;
9106;SDS011;4589;48.690;8.952;2022-09-09T01:20:10;3.10;;;1.93;;
9106;SDS011;4589;48.690;8.952;2022-09-09T01:25:21;4.23;;;2.17;;
9106;SDS011;4589;48.690;8.952;2022-09-09T01:27:54;7.90;;;2.00;;
9106;SDS011;4589;48.690;8.952;2022-09-09T01:30:22;5.33;;;1.70;;
9106;SDS011;4589;48.690;8.952;2022-09-09T01:32:49;2.90;;;2.03;;
9106;SDS011;4589;48.690;8.952;2022-09-09T01:38:01;5.40;;;1.90;;
9106;SDS011;4589;48.690;8.952;2022-09-09T01:40:27;1.83;;;1.60;;
9106;SDS011;4589;48.690;8.952;2022-09-09T01:42:53;2.80;;;1.50;;
9106;SDS011;4589;48.690;8.952;2022-09-09T01:45:20;1.60;;;1.30;;
9106;SDS011;4589;48.690;8.952;2022-09-09T01:47:47;2.13;;;1.80;;
9106;SDS011;4589;48.690;8.952;2022-09-09T01:50:14;1.80;;;1.70;;
9106;SDS011;4589;48.690;8.952;2022-09-09T01:52:40;3.70;;;2.00;;
9106;SDS011;4589;48.690;8.952;2022-09-09T01:55:06;1.90;;;1.70;;
9106;SDS011;4589;48.690;8.952;2022-09-09T01:57:35;2.70;;;1.70;;
9106;SDS011;4589;48.690;8.952;2022-09-09T02:00:41;4.10;;;1.97;;
9106;SDS011;4589;48.690;8.952;2022-09-09T02:03:20;5.63;;;1.90;;
9106;SDS011;4589;48.690;8.952;2022-09-09T02:05:49;2.40;;;2.20;;
9106;SDS011;4589;48.690;8.952;2022-09-09T02:08:41;3.47;;;2.07;;
9106;SDS011;4589;48.690;8.952;2022-09-09T02:11:15;4.03;;;2.10;;
9106;SDS011;4589;48.690;8.952;2022-09-09T02:13:43;5.30;;;2.10;;
9106;SDS011;4589;48.690;8.952;2022-09-09T02:21:38;2.03;;;1.73;;
9106;SDS011;4589;48.690;8.952;2022-09-09T02:24:07;7.60;;;2.13;;
9106;SDS011;4589;48.690;8.952;2022-09-09T02:26:35;3.30;;;1.97;;
9106;SDS011;4589;48.690;8.952;2022-09-09T02:29:03;4.03;;;1.73;;
9106;SDS011;4589;48.690;8.952;2022-09-09T02:31:33;2.40;;;2.10;;
9106;SDS011;4589;48.690;8.952;2022-09-09T02:34:00;4.50;;;2.10;;
9106;SDS011;4589;48.690;8.952;2022-09-09T02:36:28;4.27;;;1.90;;
9106;SDS011;4589;48.690;8.952;2022-09-09T02:38:55;6.60;;;1.90;;
9106;SDS011;4589;48.690;8.952;2022-09-09T02:41:34;4.40;;;1.80;;
9106;SDS011;4589;48.690;8.952;2022-09-09T02:44:02;6.07;;;2.30;;
9106;SDS011;4589;48.690;8.952;2022-09-09T02:49:22;1.83;;;1.60;;
9106;SDS011;4589;48.690;8.952;2022-09-09T02:52:07;2.90;;;2.20;;
9106;SDS011;4589;48.690;8.952;2022-09-09T02:54:37;2.77;;;2.17;;
9106;SDS011;4589;48.690;8.952;2022-09-09T02:57:23;5.40;;;2.00;;
9106;SDS011;4589;48.690;8.952;2022-09-09T02:59:52;3.87;;;2.10;;
9106;SDS011;4589;48.690;8.952;2022-09-09T03:02:19;9.13;;;2.73;;
9106;SDS011;4589;48.690;8.952;2022-09-09T03:04:45;4.83;;;1.97;;
9106;SDS011;4589;48.690;8.952;2022-09-09T03:07:15;3.17;;;2.17;;
9106;SDS011;4589;48.690;8.952;2022-09-09T03:09:42;4.03;;;1.93;;
9106;SDS011;4589;48.690;8.952;2022-09-09T03:12:08;2.07;;;1.90;;
9106;SDS011;4589;48.690;8.952;2022-09-09T03:14:36;1.93;;;1.60;;
9106;SDS011;4589;48.690;8.952;2022-09-09T03:17:03;4.33;;;1.70;;
9106;SDS011;4589;48.690;8.952;2022-09-09T03:19:29;3.70;;;1.93;;
9106;SDS011;4589;48.690;8.952;2022-09-09T03:21:55;1.83;;;1.73;;
9106;SDS011;4589;48.690;8.952;2022-09-09T03:24:20;2.50;;;2.03;;
9106;SDS011;4589;48.690;8.952;2022-09-09T03:26:47;2.40;;;1.60;;
9106;SDS011;4589;48.690;8.952;2022-09-09T03:29:13;3.00;;;1.70;;
9106;SDS011;4589;48.690;8.952;2022-09-09T03:31:40;2.60;;;1.67;;
9106;SDS011;4589;48.690;8.952;2022-09-09T03:34:06;7.30;;;2.40;;
9106;SDS011;4589;48.690;8.952;2022-09-09T03:36:32;1.90;;;1.70;;
9106;SDS011;4589;48.690;8.952;2022-09-09T03:38:58;2.80;;;2.07;;
9106;SDS011;4589;48.690;8.952;2022-09-09T03:41:25;2.00;;;1.80;;
9106;SDS011;4589;48.690;8.952;2022-09-09T03:43:51;8.13;;;2.93;;
9106;SDS011;4589;48.690;8.952;2022-09-09T03:46:18;3.10;;;2.20;;
9106;SDS011;4589;48.690;8.952;2022-09-09T03:48:44;3.70;;;2.10;;
9106;SDS011;4589;48.690;8.952;2022-09-09T03:51:10;2.30;;;2.10;;
9106;SDS011;4589;48.690;8.952;2022-09-09T03:53:36;2.90;;;1.90;;
9106;SDS011;4589;48.690;8.952;2022-09-09T03:56:03;3.20;;;1.80;;
9106;SDS011;4589;48.690;8.952;2022-09-09T03:58:31;2.03;;;1.83;;
9106;SDS011;4589;48.690;8.952;2022-09-09T04:00:58;5.53;;;1.87;;
9106;SDS011;4589;48.690;8.952;2022-09-09T04:03:25;2.53;;;1.90;;
9106;SDS011;4589;48.690;8.952;2022-09-09T04:05:52;3.10;;;1.70;;
9106;SDS011;4589;48.690;8.952;2022-09-09T04:08:19;2.20;;;2.00;;
9106;SDS011;4589;48.690;8.952;2022-09-09T04:10:48;2.73;;;1.80;;
9106;SDS011;4589;48.690;8.952;2022-09-09T04:13:15;4.40;;;1.60;;
9106;SDS011;4589;48.690;8.952;2022-09-09T04:15:42;2.00;;;1.77;;
9106;SDS011;4589;48.690;8.952;2022-09-09T04:18:08;2.50;;;1.90;;
9106;SDS011;4589;48.690;8.952;2022-09-09T04:20:34;3.10;;;2.20;;
9106;SDS011;4589;48.690;8.952;2022-09-09T04:23:00;1.80;;;1.70;;
9106;SDS011;4589;48.690;8.952;2022-09-09T04:25:26;2.50;;;2.10;;
9106;SDS011;4589;48.690;8.952;2022-09-09T04:27:55;2.37;;;2.17;;
9106;SDS011;4589;48.690;8.952;2022-09-09T04:30:22;3.43;;;1.90;;
9106;SDS011;4589;48.690;8.952;2022-09-09T04:32:48;2.40;;;2.20;;
9106;SDS011;4589;48.690;8.952;2022-09-09T04:35:14;5.10;;;2.43;;
9106;SDS011;4589;48.690;8.952;2022-09-09T04:37:40;2.83;;;2.00;;
9106;SDS011;4589;48.690;8.952;2022-09-09T04:40:07;1.73;;;1.63;;
9106;SDS011;4589;48.690;8.952;2022-09-09T04:42:37;1.97;;;1.57;;
9106;SDS011;4589;48.690;8.952;2022-09-09T04:45:04;2.40;;;1.70;;
9106;SDS011;4589;48.690;8.952;2022-09-09T04:47:31;2.33;;;2.13;;
9106;SDS011;4589;48.690;8.952;2022-09-09T04:49:57;2.30;;;1.70;;
9106;SDS011;4589;48.690;8.952;2022-09-09T04:52:23;2.50;;;1.93;;
9106;SDS011;4589;48.690;8.952;2022-09-09T04:54:48;2.10;;;1.70;;
9106;SDS011;4589;48.690;8.952;2022-09-09T04:57:14;3.40;;;2.00;;
9106;SDS011;4589;48.690;8.952;2022-09-09T04:59:40;2.97;;;2.30;;
9106;SDS011;4589;48.690;8.952;2022-09-09T05:02:06;1.93;;;1.73;;
9106;SDS011;4589;48.690;8.952;2022-09-09T05:04:32;3.17;;;2.87;;
9106;SDS011;4589;48.690;8.952;2022-09-09T05:06:58;2.80;;;2.00;;
9106;SDS011;4589;48.690;8.952;2022-09-09T05:09:24;3.90;;;2.03;;
9106;SDS011;4589;48.690;8.952;2022-09-09T05:11:50;3.23;;;2.50;;
9106;SDS011;4589;48.690;8.952;2022-09-09T05:14:16;4.67;;;2.53;;
9106;SDS011;4589;48.690;8.952;2022-09-09T05:16:44;5.23;;;2.20;;
9106;SDS011;4589;48.690;8.952;2022-09-09T05:19:09;3.03;;;2.40;;
9106;SDS011;4589;48.690;8.952;2022-09-09T05:21:35;2.43;;;2.23;;
9106;SDS011;4589;48.690;8.952;2022-09-09T05:24:01;6.73;;;2.60;;
9106;SDS011;4589;48.690;8.952;2022-09-09T05:26:27;5.87;;;2.40;;
9106;SDS011;4589;48.690;8.952;2022-09-09T05:28:54;3.50;;;2.27;;
9106;SDS011;4589;48.690;8.952;2022-09-09T05:31:20;4.37;;;2.00;;
9106;SDS011;4589;48.690;8.952;2022-09-09T05:33:46;5.03;;;1.90;;
9106;SDS011;4589;48.690;8.952;2022-09-09T05:36:13;5.03;;;1.80;;
9106;SDS011;4589;48.690;8.952;2022-09-09T05:38:40;2.30;;;1.80;;
9106;SDS011;4589;48.690;8.952;2022-09-09T05:41:06;2.10;;;1.90;;
9106;SDS011;4589;48.690;8.952;2022-09-09T05:43:33;2.53;;;1.90;;
9106;SDS011;4589;48.690;8.952;2022-09-09T05:48:33;3.43;;;1.87;;
9106;SDS011;4589;48.690;8.952;2022-09-09T05:51:11;5.10;;;2.20;;
9106;SDS011;4589;48.690;8.952;2022-09-09T05:53:40;4.13;;;1.70;;
9106;SDS011;4589;48.690;8.952;2022-09-09T05:56:14;2.53;;;2.00;;
9106;SDS011;4589;48.690;8.952;2022-09-09T05:58:44;4.30;;;2.33;;
9106;SDS011;4589;48.690;8.952;2022-09-09T06:01:18;3.37;;;1.60;;
9106;SDS011;4589;48.690;8.952;2022-09-09T06:03:46;4.97;;;2.30;;
9106;SDS011;4589;48.690;8.952;2022-09-09T06:06:14;7.23;;;1.73;;
9106;SDS011;4589;48.690;8.952;2022-09-09T06:08:42;4.00;;;1.63;;
9106;SDS011;4589;48.690;8.952;2022-09-09T06:13:35;3.97;;;2.17;;
9106;SDS011;4589;48.690;8.952;2022-09-09T06:16:11;3.23;;;2.07;;
9106;SDS011;4589;48.690;8.952;2022-09-09T06:18:38;3.73;;;2.37;;
9106;SDS011;4589;48.690;8.952;2022-09-09T06:21:05;5.20;;;2.13;;
9106;SDS011;4589;48.690;8.952;2022-09-09T06:23:32;3.53;;;1.70;;
9106;SDS011;4589;48.690;8.952;2022-09-09T06:26:05;5.53;;;1.93;;
9106;SDS011;4589;48.690;8.952;2022-09-09T06:28:31;2.67;;;1.90;;
9106;SDS011;4589;48.690;8.952;2022-09-09T06:30:58;4.53;;;1.90;;
9106;SDS011;4589;48.690;8.952;2022-09-09T06:33:24;3.33;;;2.10;;
9106;SDS011;4589;48.690;8.952;2022-09-09T06:35:51;7.73;;;2.30;;
9106;SDS011;4589;48.690;8.952;2022-09-09T06:38:18;2.47;;;1.80;;
9106;SDS011;4589;48.690;8.952;2022-09-09T06:40:50;2.10;;;1.90;;
9106;SDS011;4589;48.690;8.952;2022-09-09T06:43:20;8.90;;;2.37;;
9106;SDS011;4589;48.690;8.952;2022-09-09T06:45:53;6.37;;;2.40;;
9106;SDS011;4589;48.690;8.952;2022-09-09T06:48:19;3.20;;;1.80;;
9106;SDS011;4589;48.690;8.952;2022-09-09T06:50:45;5.50;;;2.33;;
9106;SDS011;4589;48.690;8.952;2022-09-09T06:53:11;5.20;;;2.13;;
9106;SDS011;4589;48.690;8.952;2022-09-09T06:55:37;4.70;;;1.83;;
9106;SDS011;4589;48.690;8.952;2022-09-09T06:58:08;3.60;;;2.17;;
9106;SDS011;4589;48.690;8.952;2022-09-09T07:00:34;5.43;;;2.00;;
9106;SDS011;4589;48.690;8.952;2022-09-09T07:03:02;5.50;;;2.07;;
9106;SDS011;4589;48.690;8.952;2022-09-09T07:05:28;6.43;;;2.10;;
9106;SDS011;4589;48.690;8.952;2022-09-09T07:07:54;6.87;;;2.73;;
9106;SDS011;4589;48.690;8.952;2022-09-09T07:10:20;5.23;;;1.87;;
9106;SDS011;4589;48.690;8.952;2022-09-09T07:12:49;8.60;;;1.87;;
9106;SDS011;4589;48.690;8.952;2022-09-09T07:15:17;5.13;;;1.77;;
9106;SDS011;4589;48.690;8.952;2022-09-09T07:17:43;3.47;;;1.40;;
9106;SDS011;4589;48.690;8.952;2022-09-09T07:20:10;2.40;;;1.60;;
9106;SDS011;4589;48.690;8.952;2022-09-09T07:22:36;2.90;;;1.40;;
9106;SDS011;4589;48.690;8.952;2022-09-09T07:25:02;2.30;;;1.60;;
9106;SDS011;4589;48.690;8.952;2022-09-09T07:27:29;2.90;;;1.83;;
9106;SDS011;4589;48.690;8.952;2022-09-09T07:29:55;3.33;;;1.63;;
9106;SDS011;4589;48.690;8.952;2022-09-09T07:32:20;1.87;;;1.67;;
9106;SDS011;4589;48.690;8.952;2022-09-09T07:34:46;2.23;;;1.50;;
9106;SDS011;4589;48.690;8.952;2022-09-09T07:37:12;2.33;;;1.80;;
9106;SDS011;4589;48.690;8.952;2022-09-09T07:39:39;2.77;;;1.43;;
9106;SDS011;4589;48.690;8.952;2022-09-09T07:42:05;2.00;;;1.50;;
9106;SDS011;4589;48.690;8.952;2022-09-09T07:44:31;5.77;;;1.43;;
9106;SDS011;4589;48.690;8.952;2022-09-09T07:47:00;6.27;;;1.47;;
9106;SDS011;4589;48.690;8.952;2022-09-09T07:49:26;2.03;;;1.30;;
9106;SDS011;4589;48.690;8.952;2022-09-09T07:51:52;1.80;;;1.47;;
9106;SDS011;4589;48.690;8.952;2022-09-09T07:54:18;3.13;;;1.47;;
9106;SDS011;4589;48.690;8.952;2022-09-09T07:56:48;4.10;;;2.00;;
9106;SDS011;4589;48.690;8.952;2022-09-09T07:59:15;3.07;;;1.90;;
9106;SDS011;4589;48.690;8.952;2022-09-09T08:01:45;1.87;;;1.30;;
9106;SDS011;4589;48.690;8.952;2022-09-09T08:04:14;4.03;;;1.70;;
9106;SDS011;4589;48.690;8.952;2022-09-09T08:06:43;4.13;;;1.67;;
9106;SDS011;4589;48.690;8.952;2022-09-09T08:09:11;3.40;;;1.87;;
9106;SDS011;4589;48.690;8.952;2022-09-09T08:11:37;3.30;;;1.67;;
9106;SDS011;4589;48.690;8.952;2022-09-09T08:14:04;6.30;;;1.80;;
9106;SDS011;4589;48.690;8.952;2022-09-09T08:16:33;3.93;;;1.77;;
9106;SDS011;4589;48.690;8.952;2022-09-09T08:19:01;3.30;;;1.60;;
9106;SDS011;4589;48.690;8.952;2022-09-09T08:21:29;4.97;;;1.80;;
9106;SDS011;4589;48.690;8.952;2022-09-09T08:23:57;2.60;;;1.50;;
9106;SDS011;4589;48.690;8.952;2022-09-09T08:26:24;2.50;;;1.77;;
9106;SDS011;4589;48.690;8.952;2022-09-09T08:28:55;1.93;;;1.40;;
9106;SDS011;4589;48.690;8.952;2022-09-09T08:31:23;3.20;;;1.83;;
9106;SDS011;4589;48.690;8.952;2022-09-09T08:33:56;2.13;;;1.70;;
9106;SDS011;4589;48.690;8.952;2022-09-09T08:36:25;2.43;;;1.30;;
9106;SDS011;4589;48.690;8.952;2022-09-09T08:38:53;4.33;;;1.50;;
9106;SDS011;4589;48.690;8.952;2022-09-09T08:44:07;2.17;;;1.47;;
9106;SDS011;4589;48.690;8.952;2022-09-09T08:52:19;3.90;;;1.73;;
9106;SDS011;4589;48.690;8.952;2022-09-09T08:54:50;6.20;;;1.67;;
9106;SDS011;4589;48.690;8.952;2022-09-09T08:57:20;3.37;;;1.70;;
9106;SDS011;4589;48.690;8.952;2022-09-09T08:59:47;3.60;;;1.23;;
9106;SDS011;4589;48.690;8.952;2022-09-09T09:02:17;1.37;;;1.20;;
9106;SDS011;4589;48.690;8.952;2022-09-09T09:04:57;2.13;;;1.33;;
9106;SDS011;4589;48.690;8.952;2022-09-09T09:12:58;3.77;;;1.80;;
9106;SDS011;4589;48.690;8.952;2022-09-09T09:15:27;5.40;;;1.50;;
9106;SDS011;4589;48.690;8.952;2022-09-09T09:17:54;2.23;;;1.60;;
9106;SDS011;4589;48.690;8.952;2022-09-09T09:20:23;6.03;;;1.77;;
9106;SDS011;4589;48.690;8.952;2022-09-09T09:22:55;4.20;;;1.60;;
9106;SDS011;4589;48.690;8.952;2022-09-09T09:25:25;4.30;;;1.57;;
9106;SDS011;4589;48.690;8.952;2022-09-09T09:28:00;5.70;;;1.53;;
9106;SDS011;4589;48.690;8.952;2022-09-09T09:30:40;10.83;;;1.87;;
9106;SDS011;4589;48.690;8.952;2022-09-09T09:35:52;6.90;;;1.60;;
9106;SDS011;4589;48.690;8.952;2022-09-09T09:38:22;3.10;;;1.43;;
9106;SDS011;4589;48.690;8.952;2022-09-09T09:40:50;1.70;;;1.17;;
9106;SDS011;4589;48.690;8.952;2022-09-09T09:43:20;1.80;;;1.40;;
9106;SDS011;4589;48.690;8.952;2022-09-09T09:45:50;2.87;;;1.83;;
9106;SDS011;4589;48.690;8.952;2022-09-09T09:48:16;2.27;;;1.40;;
9106;SDS011;4589;48.690;8.952;2022-09-09T09:51:08;3.23;;;1.33;;
9106;SDS011;4589;48.690;8.952;2022-09-09T09:53:38;3.10;;;1.30;;
9106;SDS011;4589;48.690;8.952;2022-09-09T09:56:08;2.03;;;1.40;;
9106;SDS011;4589;48.690;8.952;2022-09-09T10:01:02;4.23;;;1.57;;
9106;SDS011;4589;48.690;8.952;2022-09-09T10:05:58;6.37;;;1.77;;
9106;SDS011;4589;48.690;8.952;2022-09-09T10:08:24;3.30;;;1.50;;
9106;SDS011;4589;48.690;8.952;2022-09-09T10:10:53;4.43;;;1.70;;
9106;SDS011;4589;48.690;8.952;2022-09-09T10:19:25;3.83;;;1.80;;
9106;SDS011;4589;48.690;8.952;2022-09-09T10:21:57;3.20;;;1.60;;
9106;SDS011;4589;48.690;8.952;2022-09-09T10:24:38;2.43;;;1.23;;
9106;SDS011;4589;48.690;8.952;2022-09-09T10:32:40;2.60;;;1.10;;
9106;SDS011;4589;48.690;8.952;2022-09-09T10:38:05;2.60;;;1.10;;
9106;SDS011;4589;48.690;8.952;2022-09-09T10:41:18;3.13;;;1.10;;
9106;SDS011;4589;48.690;8.952;2022-09-09T10:49:18;1.80;;;1.30;;
9106;SDS011;4589;48.690;8.952;2022-09-09T10:57:27;1.67;;;1.27;;
9106;SDS011;4589;48.690;8.952;2022-09-09T10:59:58;1.93;;;1.00;;
9106;SDS011;4589;48.690;8.952;2022-09-09T11:02:29;2.10;;;1.20;;
9106;SDS011;4589;48.690;8.952;2022-09-09T11:10:01;4.53;;;1.13;;
9106;SDS011;4589;48.690;8.952;2022-09-09T11:12:27;1.50;;;1.37;;
9106;SDS011;4589;48.690;8.952;2022-09-09T11:14:58;1.63;;;1.00;;
9106;SDS011;4589;48.690;8.952;2022-09-09T11:17:42;3.87;;;1.10;;
9106;SDS011;4589;48.690;8.952;2022-09-09T11:20:17;1.87;;;1.03;;
9106;SDS011;4589;48.690;8.952;2022-09-09T11:22:45;2.00;;;1.07;;
9106;SDS011;4589;48.690;8.952;2022-09-09T11:32:47;1.40;;;1.20;;
9106;SDS011;4589;48.690;8.952;2022-09-09T11:35:25;1.00;;;0.80;;
9106;SDS011;4589;48.690;8.952;2022-09-09T11:40:23;1.00;;;0.87;;
9106;SDS011;4589;48.690;8.952;2022-09-09T11:43:00;1.63;;;1.10;;
9106;SDS011;4589;48.690;8.952;2022-09-09T11:45:27;2.30;;;1.10;;
9106;SDS011;4589;48.690;8.952;2022-09-09T11:47:55;1.87;;;1.10;;
9106;SDS011;4589;48.690;8.952;2022-09-09T11:52:47;1.37;;;0.87;;
9106;SDS011;4589;48.690;8.952;2022-09-09T11:55:30;3.00;;;1.00;;
9106;SDS011;4589;48.690;8.952;2022-09-09T11:57:58;1.10;;;0.80;;
9106;SDS011;4589;48.690;8.952;2022-09-09T12:03:49;2.90;;;1.20;;
9106;SDS011;4589;48.690;8.952;2022-09-09T12:05:58;1.67;;;0.90;;
9106;SDS011;4589;48.690;8.952;2022-09-09T12:08:33;1.47;;;0.90;;
9106;SDS011;4589;48.690;8.952;2022-09-09T12:11:01;1.73;;;1.10;;
9106;SDS011;4589;48.690;8.952;2022-09-09T12:13:30;1.30;;;1.07;;
9106;SDS011;4589;48.690;8.952;2022-09-09T12:15:57;1.10;;;0.90;;
9106;SDS011;4589;48.690;8.952;2022-09-09T12:23:54;1.83;;;1.00;;
9106;SDS011;4589;48.690;8.952;2022-09-09T12:37:09;1.30;;;1.10;;
9106;SDS011;4589;48.690;8.952;2022-09-09T12:39:57;1.30;;;0.93;;
9106;SDS011;4589;48.690;8.952;2022-09-09T12:42:25;1.50;;;1.10;;
9106;SDS011;4589;48.690;8.952;2022-09-09T12:47:17;1.37;;;0.80;;
9106;SDS011;4589;48.690;8.952;2022-09-09T12:49:45;1.97;;;1.10;;
9106;SDS011;4589;48.690;8.952;2022-09-09T12:52:17;1.50;;;1.10;;
9106;SDS011;4589;48.690;8.952;2022-09-09T12:54:46;1.30;;;0.87;;
9106;SDS011;4589;48.690;8.952;2022-09-09T12:57:12;4.53;;;1.03;;
9106;SDS011;4589;48.690;8.952;2022-09-09T12:59:40;2.20;;;1.03;;
9106;SDS011;4589;48.690;8.952;2022-09-09T13:02:20;1.80;;;1.10;;
9106;SDS011;4589;48.690;8.952;2022-09-09T13:04:48;1.27;;;0.87;;
9106;SDS011;4589;48.690;8.952;2022-09-09T13:07:15;1.33;;;0.93;;
9106;SDS011;4589;48.690;8.952;2022-09-09T13:09:41;2.50;;;0.90;;
9106;SDS011;4589;48.690;8.952;2022-09-09T13:12:11;4.80;;;1.10;;
9106;SDS011;4589;48.690;8.952;2022-09-09T13:14:40;1.50;;;1.10;;
9106;SDS011;4589;48.690;8.952;2022-09-09T13:17:15;3.40;;;1.20;;
9106;SDS011;4589;48.690;8.952;2022-09-09T13:19:46;8.23;;;1.20;;
9106;SDS011;4589;48.690;8.952;2022-09-09T13:25:06;1.30;;;0.80;;
9106;SDS011;4589;48.690;8.952;2022-09-09T13:27:51;2.40;;;1.10;;
9106;SDS011;4589;48.690;8.952;2022-09-09T13:35:54;2.30;;;1.03;;
9106;SDS011;4589;48.690;8.952;2022-09-09T13:38:21;2.90;;;1.10;;
9106;SDS011;4589;48.690;8.952;2022-09-09T13:40:54;1.60;;;0.97;;
9106;SDS011;4589;48.690;8.952;2022-09-09T13:43:22;2.53;;;1.10;;
9106;SDS011;4589;48.690;8.952;2022-09-09T13:45:59;2.57;;;1.17;;
9106;SDS011;4589;48.690;8.952;2022-09-09T13:48:27;1.80;;;0.90;;
9106;SDS011;4589;48.690;8.952;2022-09-09T13:51:04;1.53;;;0.90;;
9106;SDS011;4589;48.690;8.952;2022-09-09T13:53:30;2.00;;;0.93;;
9106;SDS011;4589;48.690;8.952;2022-09-09T13:55:56;1.57;;;1.30;;
9106;SDS011;4589;48.690;8.952;2022-09-09T13:58:22;2.10;;;0.93;;
9106;SDS011;4589;48.690;8.952;2022-09-09T14:00:50;3.27;;;0.97;;
9106;SDS011;4589;48.690;8.952;2022-09-09T14:03:16;2.23;;;1.20;;
9106;SDS011;4589;48.690;8.952;2022-09-09T14:05:41;1.87;;;1.20;;
9106;SDS011;4589;48.690;8.952;2022-09-09T14:08:09;2.60;;;1.20;;
9106;SDS011;4589;48.690;8.952;2022-09-09T14:10:46;1.57;;;0.90;;
9106;SDS011;4589;48.690;8.952;2022-09-09T14:13:12;1.47;;;1.10;;
9106;SDS011;4589;48.690;8.952;2022-09-09T14:15:38;2.27;;;1.00;;
9106;SDS011;4589;48.690;8.952;2022-09-09T14:18:04;2.13;;;0.90;;
9106;SDS011;4589;48.690;8.952;2022-09-09T14:20:30;1.27;;;0.90;;
9106;SDS011;4589;48.690;8.952;2022-09-09T14:22:56;4.20;;;1.70;;
9106;SDS011;4589;48.690;8.952;2022-09-09T14:25:23;1.83;;;1.00;;
9106;SDS011;4589;48.690;8.952;2022-09-09T14:27:49;2.83;;;0.90;;
9106;SDS011;4589;48.690;8.952;2022-09-09T14:30:16;1.10;;;0.80;;
9106;SDS011;4589;48.690;8.952;2022-09-09T14:32:42;1.43;;;1.00;;
9106;SDS011;4589;48.690;8.952;2022-09-09T14:35:08;1.50;;;1.07;;
9106;SDS011;4589;48.690;8.952;2022-09-09T14:37:34;4.30;;;1.30;;
9106;SDS011;4589;48.690;8.952;2022-09-09T14:39:59;2.03;;;0.90;;
9106;SDS011;4589;48.690;8.952;2022-09-09T14:42:25;1.77;;;0.97;;
9106;SDS011;4589;48.690;8.952;2022-09-09T14:44:51;2.20;;;0.90;;
9106;SDS011;4589;48.690;8.952;2022-09-09T14:47:18;2.93;;;1.30;;
9106;SDS011;4589;48.690;8.952;2022-09-09T14:49:43;1.27;;;0.80;;
9106;SDS011;4589;48.690;8.952;2022-09-09T14:52:10;1.40;;;0.90;;
9106;SDS011;4589;48.690;8.952;2022-09-09T14:54:36;1.73;;;1.17;;
9106;SDS011;4589;48.690;8.952;2022-09-09T14:57:02;2.20;;;1.00;;
9106;SDS011;4589;48.690;8.952;2022-09-09T14:59:28;2.17;;;0.90;;
9106;SDS011;4589;48.690;8.952;2022-09-09T15:01:54;1.97;;;0.90;;
9106;SDS011;4589;48.690;8.952;2022-09-09T15:04:20;2.13;;;1.07;;
9106;SDS011;4589;48.690;8.952;2022-09-09T15:06:46;1.83;;;1.10;;
9106;SDS011;4589;48.690;8.952;2022-09-09T15:09:13;1.60;;;0.90;;
9106;SDS011;4589;48.690;8.952;2022-09-09T15:11:39;2.43;;;0.90;;
9106;SDS011;4589;48.690;8.952;2022-09-09T15:14:06;1.87;;;1.10;;
9106;SDS011;4589;48.690;8.952;2022-09-09T15:16:32;1.53;;;0.90;;
9106;SDS011;4589;48.690;8.952;2022-09-09T15:18:58;2.23;;;1.77;;
9106;SDS011;4589;48.690;8.952;2022-09-09T15:21:26;3.03;;;1.20;;
9106;SDS011;4589;48.690;8.952;2022-09-09T15:23:53;6.50;;;1.20;;
9106;SDS011;4589;48.690;8.952;2022-09-09T15:26:20;2.10;;;1.13;;
9106;SDS011;4589;48.690;8.952;2022-09-09T15:28:46;1.53;;;1.10;;
9106;SDS011;4589;48.690;8.952;2022-09-09T15:31:18;1.70;;;1.10;;
9106;SDS011;4589;48.690;8.952;2022-09-09T15:33:49;2.27;;;1.03;;
9106;SDS011;4589;48.690;8.952;2022-09-09T15:36:17;1.33;;;1.00;;
9106;SDS011;4589;48.690;8.952;2022-09-09T15:38:44;1.20;;;1.00;;
9106;SDS011;4589;48.690;8.952;2022-09-09T15:41:10;3.30;;;1.30;;
9106;SDS011;4589;48.690;8.952;2022-09-09T15:43:37;3.30;;;1.00;;
9106;SDS011;4589;48.690;8.952;2022-09-09T15:48:52;2.13;;;0.80;;
9106;SDS011;4589;48.690;8.952;2022-09-09T15:51:39;2.53;;;1.10;;
9106;SDS011;4589;48.690;8.952;2022-09-09T15:54:07;1.60;;;0.87;;
9106;SDS011;4589;48.690;8.952;2022-09-09T15:56:33;2.80;;;1.10;;
9106;SDS011;4589;48.690;8.952;2022-09-09T15:59:00;3.63;;;1.10;;
9106;SDS011;4589;48.690;8.952;2022-09-09T16:01:28;2.17;;;1.10;;
9106;SDS011;4589;48.690;8.952;2022-09-09T16:03:55;2.60;;;1.10;;
9106;SDS011;4589;48.690;8.952;2022-09-09T16:06:22;2.80;;;1.00;;
9106;SDS011;4589;48.690;8.952;2022-09-09T16:08:49;2.60;;;1.10;;
9106;SDS011;4589;48.690;8.952;2022-09-09T16:11:17;3.00;;;1.10;;
9106;SDS011;4589;48.690;8.952;2022-09-09T16:13:48;2.40;;;1.37;;
9106;SDS011;4589;48.690;8.952;2022-09-09T16:16:15;1.60;;;1.07;;
9106;SDS011;4589;48.690;8.952;2022-09-09T16:18:44;3.37;;;0.90;;
9106;SDS011;4589;48.690;8.952;2022-09-09T16:21:13;2.63;;;1.10;;
9106;SDS011;4589;48.690;8.952;2022-09-09T16:23:39;1.60;;;1.10;;
9106;SDS011;4589;48.690;8.952;2022-09-09T16:26:05;2.07;;;1.13;;
9106;SDS011;4589;48.690;8.952;2022-09-09T16:28:31;2.50;;;0.97;;
9106;SDS011;4589;48.690;8.952;2022-09-09T16:30:56;1.07;;;0.80;;
9106;SDS011;4589;48.690;8.952;2022-09-09T16:33:23;1.73;;;0.90;;
9106;SDS011;4589;48.690;8.952;2022-09-09T16:35:51;1.30;;;0.97;;
9106;SDS011;4589;48.690;8.952;2022-09-09T16:38:16;2.27;;;1.53;;
9106;SDS011;4589;48.690;8.952;2022-09-09T16:40:42;1.27;;;0.83;;
9106;SDS011;4589;48.690;8.952;2022-09-09T16:43:08;2.60;;;1.00;;
9106;SDS011;4589;48.690;8.952;2022-09-09T16:45:41;1.10;;;0.90;;
9106;SDS011;4589;48.690;8.952;2022-09-09T16:48:07;1.13;;;0.90;;
9106;SDS011;4589;48.690;8.952;2022-09-09T16:50:33;1.67;;;1.10;;
9106;SDS011;4589;48.690;8.952;2022-09-09T16:52:59;1.17;;;0.87;;
9106;SDS011;4589;48.690;8.952;2022-09-09T16:55:27;0.97;;;0.70;;
9106;SDS011;4589;48.690;8.952;2022-09-09T16:57:54;1.10;;;0.83;;
9106;SDS011;4589;48.690;8.952;2022-09-09T17:00:20;1.83;;;1.00;;
9106;SDS011;4589;48.690;8.952;2022-09-09T17:02:48;1.00;;;0.70;;
9106;SDS011;4589;48.690;8.952;2022-09-09T17:05:13;1.97;;;1.00;;
9106;SDS011;4589;48.690;8.952;2022-09-09T17:07:39;1.00;;;0.80;;
9106;SDS011;4589;48.690;8.952;2022-09-09T17:10:06;1.10;;;1.00;;
9106;SDS011;4589;48.690;8.952;2022-09-09T17:12:32;2.90;;;0.90;;
9106;SDS011;4589;48.690;8.952;2022-09-09T17:15:00;1.30;;;1.00;;
9106;SDS011;4589;48.690;8.952;2022-09-09T17:17:27;3.60;;;1.00;;
9106;SDS011;4589;48.690;8.952;2022-09-09T17:19:53;1.10;;;0.80;;
9106;SDS011;4589;48.690;8.952;2022-09-09T17:22:19;1.20;;;1.10;;
9106;SDS011;4589;48.690;8.952;2022-09-09T17:24:46;1.63;;;0.80;;
9106;SDS011;4589;48.690;8.952;2022-09-09T17:27:12;1.90;;;0.90;;
9106;SDS011;4589;48.690;8.952;2022-09-09T17:29:38;1.77;;;0.90;;
9106;SDS011;4589;48.690;8.952;2022-09-09T17:32:04;1.40;;;1.10;;
9106;SDS011;4589;48.690;8.952;2022-09-09T17:34:32;1.10;;;0.90;;
9106;SDS011;4589;48.690;8.952;2022-09-09T17:36:58;1.50;;;0.90;;
9106;SDS011;4589;48.690;8.952;2022-09-09T17:39:24;1.80;;;1.00;;